Time;durP1;ratioP1;P1;durP2;ratioP2;P2;SDS_P1;SDS_P2;PMS_P1;PMS_P2;Temp;Humidity;BMP_temperature;BMP_pressure;BME280_temperature;BME280_humidity;BME280_pressure;Samples;Min_cycle;Max_cycle;Signal;HPM_P1;HPM_P2
2023/04/05 00:00:46;;;;;;;5.07;2.40;;;2.10;94.50;;;;;;4947671;29;20972;-65
2023/04/05 00:03:12;;;;;;;5.47;2.70;;;2.10;94.40;;;;;;4946207;29;20035;-65
2023/04/05 00:05:38;;;;;;;3.67;1.92;;;2.10;94.20;;;;;;4945479;29;20062;-65
2023/04/05 00:08:17;;;;;;;2.90;1.63;;;2.10;93.90;;;;;;4948326;29;20055;-64
2023/04/05 00:10:43;;;;;;;3.95;2.13;;;2.10;93.80;;;;;;4950606;29;20054;-64
2023/04/05 00:13:08;;;;;;;3.58;1.88;;;2.10;94.10;;;;;;4941489;29;20035;-65
2023/04/05 00:15:34;;;;;;;5.28;2.00;;;2.10;94.20;;;;;;4947377;29;20041;-65
2023/04/05 00:18:02;;;;;;;4.65;1.95;;;2.10;94.20;;;;;;4949382;28;20038;-65
2023/04/05 00:20:28;;;;;;;4.45;1.92;;;2.10;94.00;;;;;;4948217;28;20043;-64
2023/04/05 00:22:54;;;;;;;2.90;1.70;;;2.10;94.20;;;;;;4945773;29;20039;-65
2023/04/05 00:25:20;;;;;;;2.67;1.70;;;2.10;94.40;;;;;;4947425;28;20030;-65
2023/04/05 00:27:46;;;;;;;2.88;1.75;;;2.10;94.50;;;;;;4947353;29;20503;-65
2023/04/05 00:30:19;;;;;;;2.83;1.67;;;2.00;94.30;;;;;;4949099;29;20122;-65
2023/04/05 00:32:48;;;;;;;3.40;1.67;;;2.00;94.20;;;;;;4948915;29;20038;-65
2023/04/05 00:35:15;;;;;;;6.30;2.15;;;2.00;94.20;;;;;;4950464;29;20242;-65
2023/04/05 00:37:40;;;;;;;7.28;2.15;;;1.90;94.40;;;;;;4933885;29;20033;-65
2023/04/05 00:40:07;;;;;;;4.22;1.90;;;1.90;94.60;;;;;;4953522;28;20031;-65
2023/04/05 00:42:33;;;;;;;2.67;1.77;;;1.90;94.90;;;;;;4933769;29;20730;-65
2023/04/05 00:44:59;;;;;;;3.65;2.13;;;1.80;94.80;;;;;;4932881;29;20078;-65
2023/04/05 00:47:26;;;;;;;4.22;1.80;;;1.90;94.90;;;;;;4932445;29;20039;-65
2023/04/05 00:49:52;;;;;;;2.65;1.75;;;1.80;94.80;;;;;;4950586;29;20051;-64
2023/04/05 00:52:18;;;;;;;3.65;1.65;;;1.80;95.00;;;;;;4949149;29;20593;-65
2023/04/05 00:54:44;;;;;;;2.30;1.60;;;1.80;95.00;;;;;;4946593;29;20031;-65
2023/04/05 00:57:10;;;;;;;2.83;1.80;;;1.80;95.00;;;;;;4931612;29;20385;-65
2023/04/05 00:59:36;;;;;;;6.65;2.08;;;1.80;95.00;;;;;;4947455;29;20818;-64
2023/04/05 01:02:15;;;;;;;3.33;1.70;;;1.70;95.10;;;;;;4928634;28;20058;-65
2023/04/05 01:04:48;;;;;;;4.85;1.98;;;1.70;95.40;;;;;;4930380;29;20035;-65
2023/04/05 01:07:39;;;;;;;5.28;1.92;;;1.70;95.40;;;;;;4943935;29;20032;-65
2023/04/05 01:10:08;;;;;;;5.72;1.90;;;1.70;94.90;;;;;;4950084;28;20531;-65
2023/04/05 01:12:36;;;;;;;3.88;2.25;;;1.70;94.80;;;;;;4950009;28;20038;-65
2023/04/05 01:15:03;;;;;;;5.25;2.15;;;1.70;94.80;;;;;;4928137;29;20042;-65
2023/04/05 01:17:35;;;;;;;3.80;1.70;;;1.70;94.90;;;;;;4947529;29;20047;-65
2023/04/05 01:20:09;;;;;;;2.55;1.50;;;1.60;94.70;;;;;;4948144;29;20024;-65
2023/04/05 01:22:54;;;;;;;3.53;1.27;;;1.60;94.80;;;;;;4930797;29;20117;-65
2023/04/05 01:25:51;;;;;;;3.08;1.48;;;1.50;95.00;;;;;;4947956;28;20067;-65
2023/04/05 01:28:36;;;;;;;;;;;1.50;94.90;;;;;;4944468;29;20094;-65
2023/04/05 01:31:35;;;;;;;3.05;1.52;;;1.50;94.90;;;;;;4944494;29;20093;-65
2023/04/05 01:34:21;;;;;;;1.98;1.33;;;1.60;95.40;;;;;;4942891;29;20035;-66
2023/04/05 01:36:56;;;;;;;2.88;1.67;;;1.60;95.40;;;;;;4926354;29;20027;-65
2023/04/05 01:39:23;;;;;;;2.38;1.77;;;1.60;96.00;;;;;;4942812;28;20039;-65
2023/04/05 01:41:50;;;;;;;4.25;1.60;;;1.60;95.70;;;;;;4946387;29;20050;-65
2023/04/05 01:44:15;;;;;;;2.97;1.58;;;1.50;95.60;;;;;;4945590;29;20027;-65
2023/04/05 01:46:41;;;;;;;3.58;1.88;;;1.50;95.50;;;;;;4930328;29;20085;-65
2023/04/05 01:49:07;;;;;;;2.95;1.50;;;1.50;95.20;;;;;;4946820;29;20031;-65
2023/04/05 01:51:33;;;;;;;3.00;2.03;;;1.60;94.80;;;;;;4927408;29;20031;-65
2023/04/05 01:53:59;;;;;;;4.38;1.42;;;1.60;94.30;;;;;;4931499;28;20807;-65
2023/04/05 01:56:26;;;;;;;5.10;1.65;;;1.80;93.70;;;;;;4945333;28;20043;-65
2023/04/05 01:58:52;;;;;;;5.03;1.50;;;1.80;93.50;;;;;;4931075;29;20126;-66
2023/04/05 02:01:18;;;;;;;3.65;1.40;;;1.80;93.60;;;;;;4931255;29;20119;-65
2023/04/05 02:03:44;;;;;;;2.05;1.58;;;1.90;93.90;;;;;;4949285;28;20070;-65
2023/04/05 02:06:10;;;;;;;2.95;1.52;;;1.90;93.90;;;;;;4932832;29;20082;-65
2023/04/05 02:08:36;;;;;;;2.35;1.50;;;1.90;93.90;;;;;;4949755;29;20031;-66
2023/04/05 02:11:01;;;;;;;3.45;1.27;;;1.90;93.90;;;;;;4946558;29;20047;-65
2023/04/05 02:13:28;;;;;;;4.32;1.35;;;2.00;94.00;;;;;;4931141;29;20085;-65
2023/04/05 02:15:54;;;;;;;2.40;1.38;;;1.90;93.90;;;;;;4947866;29;20043;-65
2023/04/05 02:18:28;;;;;;;2.13;1.40;;;1.90;93.70;;;;;;4931092;29;20435;-66
2023/04/05 02:21:03;;;;;;;1.88;1.50;;;1.90;93.60;;;;;;4945167;29;20031;-65
2023/04/05 02:23:30;;;;;;;2.92;1.73;;;1.90;93.60;;;;;;4942813;29;20149;-65
2023/04/05 02:25:56;;;;;;;2.33;1.42;;;1.80;93.60;;;;;;4948758;29;20031;-65
2023/04/05 02:28:23;;;;;;;2.40;1.45;;;1.80;93.50;;;;;;4951582;29;20404;-65
2023/04/05 02:30:52;;;;;;;3.83;2.13;;;1.70;93.10;;;;;;4934787;29;20031;-65
2023/04/05 02:33:18;;;;;;;3.90;1.73;;;1.70;92.80;;;;;;4947242;29;20770;-66
2023/04/05 02:35:44;;;;;;;5.43;1.52;;;1.70;92.90;;;;;;4949317;29;20043;-65
2023/04/05 02:38:10;;;;;;;2.97;1.45;;;1.60;93.10;;;;;;4949607;29;20032;-66
2023/04/05 02:40:36;;;;;;;2.45;1.63;;;1.50;93.30;;;;;;4935468;29;20213;-65
2023/04/05 02:43:02;;;;;;;3.65;1.55;;;1.50;93.70;;;;;;4954245;29;20035;-66
2023/04/05 02:45:28;;;;;;;3.17;1.60;;;1.40;93.80;;;;;;4953956;29;20031;-66
2023/04/05 02:47:56;;;;;;;2.63;1.40;;;1.30;94.00;;;;;;4935958;28;20106;-66
2023/04/05 02:50:22;;;;;;;5.65;1.90;;;1.30;94.20;;;;;;4935975;29;20038;-66
2023/04/05 02:52:49;;;;;;;3.58;1.95;;;1.30;94.50;;;;;;4937379;29;20119;-65
2023/04/05 02:55:16;;;;;;;4.55;1.70;;;1.30;94.60;;;;;;4920524;29;20099;-65
2023/04/05 02:57:42;;;;;;;4.32;1.98;;;1.20;94.70;;;;;;4933253;29;20261;-65
2023/04/05 03:00:28;;;;;;;2.00;1.50;;;1.20;94.80;;;;;;4935141;29;20042;-66
2023/04/05 03:02:56;;;;;;;2.95;1.77;;;1.20;95.00;;;;;;4934991;29;20114;-65
2023/04/05 03:05:22;;;;;;;4.32;2.40;;;1.10;95.10;;;;;;4936481;29;20035;-65
2023/04/05 03:07:51;;;;;;;3.88;2.00;;;1.10;95.40;;;;;;4934741;29;20027;-65
2023/04/05 03:10:21;;;;;;;3.80;1.63;;;1.10;95.50;;;;;;4952446;29;20066;-65
2023/04/05 03:12:52;;;;;;;1.85;1.15;;;1.10;95.70;;;;;;4951499;29;20073;-66
2023/04/05 03:15:22;;;;;;;3.25;1.60;;;1.10;95.60;;;;;;4934504;29;20038;-65
2023/04/05 03:17:48;;;;;;;3.28;1.40;;;1.10;95.60;;;;;;4951263;29;20027;-65
2023/04/05 03:20:14;;;;;;;2.28;1.50;;;1.00;95.70;;;;;;4951101;29;20474;-65
2023/04/05 03:22:40;;;;;;;4.18;1.30;;;1.00;95.70;;;;;;4934661;29;20059;-66
2023/04/05 03:25:06;;;;;;;2.85;1.38;;;1.10;95.80;;;;;;4933840;29;20782;-65
2023/04/05 03:27:39;;;;;;;2.85;1.50;;;1.00;95.90;;;;;;4949533;29;20031;-66
2023/04/05 03:30:10;;;;;;;3.42;1.58;;;1.00;96.20;;;;;;4945617;29;20038;-66
2023/04/05 03:32:42;;;;;;;3.78;1.33;;;1.00;96.30;;;;;;4931544;29;20027;-65
2023/04/05 03:35:21;;;;;;;2.03;1.23;;;1.00;96.40;;;;;;4930161;29;20081;-65
2023/04/05 03:37:47;;;;;;;2.38;1.55;;;0.90;96.50;;;;;;4931442;28;20078;-65
2023/04/05 03:40:13;;;;;;;2.53;1.20;;;0.90;96.60;;;;;;4947538;29;20038;-65
2023/04/05 03:42:39;;;;;;;3.40;1.40;;;0.90;96.50;;;;;;4947242;29;20023;-65
2023/04/05 03:45:06;;;;;;;3.05;1.48;;;0.90;96.20;;;;;;4929334;29;20058;-65
2023/04/05 03:47:32;;;;;;;2.85;1.13;;;1.00;96.20;;;;;;4946394;29;20117;-66
2023/04/05 03:50:02;;;;;;;3.72;1.90;;;1.00;95.70;;;;;;4931852;29;20031;-66
2023/04/05 03:52:30;;;;;;;5.88;1.83;;;1.00;95.90;;;;;;4932666;29;20143;-66
2023/04/05 03:54:56;;;;;;;2.75;1.52;;;1.00;96.30;;;;;;4933146;29;20752;-66
2023/04/05 03:57:23;;;;;;;3.20;1.52;;;1.10;96.70;;;;;;4932265;29;20032;-65
2023/04/05 03:59:53;;;;;;;3.13;2.33;;;1.10;97.00;;;;;;4931950;29;20404;-66
2023/04/05 04:02:19;;;;;;;5.00;2.30;;;1.20;97.50;;;;;;4949104;29;20027;-65
2023/04/05 04:04:46;;;;;;;3.78;2.15;;;1.30;98.00;;;;;;4945874;29;20038;-65
2023/04/05 04:07:13;;;;;;;6.30;2.88;;;1.30;98.30;;;;;;4931881;29;20035;-65
2023/04/05 04:09:39;;;;;;;5.05;1.98;;;1.30;98.60;;;;;;4931212;29;20035;-65
2023/04/05 04:12:07;;;;;;;6.40;2.95;;;1.40;98.90;;;;;;4930947;29;20127;-65
2023/04/05 04:14:37;;;;;;;7.03;3.50;;;1.40;99.10;;;;;;4932525;29;20027;-65
2023/04/05 04:17:33;;;;;;;2.83;1.70;;;1.50;99.30;;;;;;4945594;29;20093;-65
2023/04/05 04:20:15;;;;;;;3.97;2.42;;;1.60;99.30;;;;;;4932223;29;20054;-65
2023/04/05 04:22:55;;;;;;;3.97;2.50;;;1.60;99.50;;;;;;4924944;29;20027;-65
2023/04/05 04:25:53;;;;;;;4.10;2.00;;;1.70;99.50;;;;;;4936394;29;20043;-65
2023/04/05 04:28:47;;;;;;;4.35;2.40;;;1.70;99.50;;;;;;4930802;29;20038;-65
2023/04/05 04:31:33;;;;;;;4.63;2.33;;;1.70;99.60;;;;;;4945496;29;20429;-65
2023/04/05 04:34:20;;;;;;;8.07;2.22;;;1.80;99.60;;;;;;4947437;28;20057;-65
2023/04/05 04:37:04;;;;;;;3.55;2.30;;;1.80;99.70;;;;;;4945187;28;20385;-65
2023/04/05 04:39:53;;;;;;;2.83;1.92;;;1.90;99.50;;;;;;4935934;28;20388;-65
2023/04/05 04:42:57;;;;;;;5.03;2.20;;;1.90;99.40;;;;;;4907352;29;20071;-66
2023/04/05 04:45:54;;;;;;;8.90;2.30;;;1.90;99.30;;;;;;4878838;29;20041;-66
2023/04/05 04:48:32;;;;;;;6.07;2.45;;;2.00;99.30;;;;;;4944743;29;20038;-65
2023/04/05 04:51:10;;;;;;;5.18;2.20;;;2.00;99.00;;;;;;4949042;29;20037;-65
2023/04/05 04:53:36;;;;;;;5.57;2.58;;;2.00;98.70;;;;;;4947283;29;20031;-65
2023/04/05 04:56:06;;;;;;;2.60;2.00;;;2.00;98.40;;;;;;4948926;29;20039;-65
2023/04/05 04:58:32;;;;;;;5.63;2.45;;;2.10;98.30;;;;;;4951975;28;20373;-65
2023/04/05 05:01:08;;;;;;;5.30;2.17;;;2.10;98.20;;;;;;4934615;29;20031;-66
2023/04/05 05:03:35;;;;;;;4.35;2.25;;;2.10;97.50;;;;;;4949009;29;20039;-65
2023/04/05 05:06:01;;;;;;;4.65;2.15;;;2.10;97.40;;;;;;4934728;29;20766;-66
2023/04/05 05:08:30;;;;;;;2.92;1.70;;;2.10;97.50;;;;;;4948730;29;20031;-66
2023/04/05 05:10:56;;;;;;;5.30;2.28;;;2.10;97.60;;;;;;4949933;29;20034;-65
2023/04/05 05:13:22;;;;;;;3.10;1.90;;;2.10;97.80;;;;;;4950466;28;20415;-65
2023/04/05 05:15:47;;;;;;;6.40;2.22;;;2.10;97.90;;;;;;4947736;29;20043;-66
2023/04/05 05:18:13;;;;;;;4.05;2.58;;;2.10;98.00;;;;;;4932356;29;20028;-66
2023/04/05 05:20:40;;;;;;;7.40;2.78;;;2.10;98.10;;;;;;4933554;29;20023;-65
2023/04/05 05:23:06;;;;;;;3.15;1.88;;;2.20;98.10;;;;;;4932798;29;20035;-66
2023/04/05 05:25:31;;;;;;;5.45;2.15;;;2.10;98.00;;;;;;4946648;29;20031;-65
2023/04/05 05:27:57;;;;;;;5.82;2.10;;;2.10;97.90;;;;;;4932660;29;20049;-66
2023/04/05 05:30:25;;;;;;;3.92;2.40;;;2.10;97.70;;;;;;4930566;29;20129;-65
2023/04/05 05:32:51;;;;;;;4.40;2.13;;;2.10;97.40;;;;;;4946720;28;20031;-66
2023/04/05 05:35:17;;;;;;;4.88;2.22;;;2.10;97.30;;;;;;4945472;29;20035;-66
2023/04/05 05:37:43;;;;;;;3.78;2.17;;;2.00;97.30;;;;;;4946329;29;20039;-66
2023/04/05 05:40:12;;;;;;;6.45;2.10;;;2.00;97.50;;;;;;4947413;28;20125;-65
2023/04/05 05:42:38;;;;;;;4.30;2.13;;;2.00;97.70;;;;;;4941671;29;20031;-65
2023/04/05 05:45:05;;;;;;;4.72;2.40;;;2.00;97.90;;;;;;4930366;29;20039;-65
2023/04/05 05:47:31;;;;;;;3.55;2.10;;;2.10;98.00;;;;;;4946295;29;20498;-65
2023/04/05 05:49:57;;;;;;;7.18;2.97;;;2.10;98.00;;;;;;4943013;29;20027;-65
2023/04/05 05:52:23;;;;;;;8.88;3.35;;;2.10;98.00;;;;;;4945359;29;20051;-66
2023/04/05 05:54:49;;;;;;;6.85;3.33;;;2.20;98.10;;;;;;4945443;29;20027;-66
2023/04/05 05:57:15;;;;;;;6.20;3.08;;;2.30;97.70;;;;;;4947865;29;20049;-65
2023/04/05 05:59:40;;;;;;;7.32;3.22;;;2.30;97.60;;;;;;4939611;29;20087;-65
2023/04/05 06:02:07;;;;;;;6.13;3.17;;;2.40;97.40;;;;;;4946715;29;20039;-64
2023/04/05 06:04:33;;;;;;;5.20;2.85;;;2.50;97.20;;;;;;4948287;29;20027;-65
2023/04/05 06:06:59;;;;;;;6.57;3.42;;;2.50;97.00;;;;;;4942055;29;20035;-66
2023/04/05 06:09:27;;;;;;;7.03;3.00;;;2.60;96.80;;;;;;4946432;29;20389;-66
2023/04/05 06:11:53;;;;;;;4.28;2.88;;;2.70;97.10;;;;;;4927960;29;20031;-65
2023/04/05 06:14:19;;;;;;;5.72;2.85;;;2.70;97.20;;;;;;4946183;29;20050;-65
2023/04/05 06:16:45;;;;;;;7.07;2.97;;;2.80;97.00;;;;;;4944547;29;20038;-66
2023/04/05 06:19:11;;;;;;;6.82;3.97;;;2.90;96.90;;;;;;4946551;29;20027;-65
2023/04/05 06:21:37;;;;;;;9.93;5.57;;;2.90;96.90;;;;;;4946128;29;20038;-65
2023/04/05 06:24:03;;;;;;;8.85;4.40;;;3.00;96.60;;;;;;4947708;28;20038;-65
2023/04/05 06:26:29;;;;;;;6.78;4.43;;;3.10;96.50;;;;;;4949905;29;20027;-65
2023/04/05 06:28:55;;;;;;;5.43;3.22;;;3.20;96.70;;;;;;4947568;29;20703;-66
2023/04/05 06:31:31;;;;;;;4.22;2.80;;;3.30;96.60;;;;;;4949635;29;20043;-65
2023/04/05 06:33:57;;;;;;;4.05;2.30;;;3.40;95.70;;;;;;4950887;28;20042;-65
2023/04/05 06:36:23;;;;;;;4.10;2.60;;;3.50;95.30;;;;;;4952158;28;20031;-65
2023/04/05 06:38:52;;;;;;;4.00;2.70;;;3.60;94.90;;;;;;4953106;28;20023;-64
2023/04/05 06:41:18;;;;;;;4.63;3.50;;;3.70;95.20;;;;;;4949320;29;20031;-64
2023/04/05 06:43:44;;;;;;;4.78;3.15;;;3.80;95.30;;;;;;4949291;29;20031;-64
2023/04/05 06:46:11;;;;;;;3.85;2.65;;;4.00;95.20;;;;;;4948714;29;20040;-64
2023/04/05 06:48:38;;;;;;;7.25;2.65;;;4.10;95.50;;;;;;4951856;29;20027;-64
2023/04/05 06:51:04;;;;;;;4.45;2.60;;;4.30;94.70;;;;;;4950840;29;20148;-64
2023/04/05 06:53:30;;;;;;;9.80;4.00;;;4.40;94.50;;;;;;4949698;29;20138;-64
2023/04/05 06:55:57;;;;;;;9.35;4.63;;;4.60;94.10;;;;;;4948534;29;20039;-64
2023/04/05 06:58:23;;;;;;;8.38;3.03;;;4.70;94.10;;;;;;4950795;29;20051;-64
2023/04/05 07:00:50;;;;;;;12.02;5.25;;;4.90;93.80;;;;;;4946476;29;20456;-65
2023/04/05 07:03:17;;;;;;;12.77;5.97;;;5.10;93.70;;;;;;4957042;29;20035;-65
2023/04/05 07:05:51;;;;;;;7.45;3.67;;;5.20;93.70;;;;;;4958621;29;20118;-65
2023/04/05 07:08:17;;;;;;;7.22;4.15;;;5.50;93.00;;;;;;4955374;28;20118;-65
2023/04/05 07:10:43;;;;;;;10.20;5.18;;;5.70;92.50;;;;;;4959928;28;20035;-65
2023/04/05 07:13:09;;;;;;;11.48;4.75;;;5.80;92.30;;;;;;4956691;29;20049;-64
2023/04/05 07:15:34;;;;;;;10.48;4.95;;;5.90;92.40;;;;;;4954361;29;20075;-65
2023/04/05 07:18:00;;;;;;;14.07;6.00;;;6.10;92.60;;;;;;4951134;29;20126;-65
2023/04/05 07:20:26;;;;;;;6.57;3.08;;;6.30;92.00;;;;;;4950334;29;20042;-65
2023/04/05 07:22:52;;;;;;;6.53;2.92;;;6.60;90.30;;;;;;4952434;29;20031;-64
2023/04/05 07:25:18;;;;;;;9.23;2.50;;;7.00;89.00;;;;;;4948467;29;20023;-65
2023/04/05 07:27:43;;;;;;;6.90;2.72;;;7.40;86.20;;;;;;4951045;29;20050;-63
2023/04/05 07:30:09;;;;;;;5.35;2.58;;;7.80;85.30;;;;;;4947539;29;20043;-65
2023/04/05 07:32:35;;;;;;;4.93;2.15;;;8.20;82.40;;;;;;4947886;29;20047;-65
2023/04/05 07:35:02;;;;;;;6.28;3.03;;;8.50;79.20;;;;;;4946768;28;20066;-65
2023/04/05 07:37:27;;;;;;;6.20;2.90;;;8.80;79.20;;;;;;4947666;29;20122;-66
2023/04/05 07:39:53;;;;;;;5.70;3.47;;;9.10;77.20;;;;;;4950482;28;20114;-65
2023/04/05 07:42:20;;;;;;;9.57;3.72;;;9.30;73.90;;;;;;4949531;29;20038;-65
2023/04/05 07:44:46;;;;;;;4.35;2.72;;;9.60;72.30;;;;;;4948013;29;20035;-65
2023/04/05 07:47:12;;;;;;;5.28;2.95;;;9.60;71.60;;;;;;4949483;29;20043;-65
2023/04/05 07:49:38;;;;;;;5.18;3.05;;;9.70;70.30;;;;;;4947518;29;20023;-65
2023/04/05 07:52:05;;;;;;;8.27;3.95;;;9.80;68.70;;;;;;4948414;29;20062;-65
2023/04/05 07:54:34;;;;;;;8.95;3.72;;;9.70;67.50;;;;;;4946034;29;20463;-65
2023/04/05 07:57:01;;;;;;;8.23;3.35;;;9.90;68.10;;;;;;4948518;29;20798;-67
2023/04/05 07:59:27;;;;;;;8.60;3.97;;;10.00;67.80;;;;;;4946350;29;20724;-65
2023/04/05 08:01:53;;;;;;;7.75;3.10;;;10.20;67.20;;;;;;4947144;29;20023;-66
2023/04/05 08:04:22;;;;;;;5.53;3.30;;;10.40;66.80;;;;;;4943249;29;20551;-65
2023/04/05 08:06:48;;;;;;;5.93;2.78;;;10.40;64.00;;;;;;4945688;29;20039;-65
2023/04/05 08:09:13;;;;;;;7.45;3.33;;;10.60;65.50;;;;;;4945756;29;20035;-65
2023/04/05 08:11:39;;;;;;;6.75;2.97;;;10.70;64.10;;;;;;4947535;28;20122;-65
2023/04/05 08:14:05;;;;;;;5.80;3.03;;;10.60;63.30;;;;;;4946629;28;20793;-65
2023/04/05 08:16:32;;;;;;;5.38;2.53;;;10.50;63.20;;;;;;4943379;29;20039;-65
2023/04/05 08:18:58;;;;;;;5.35;3.35;;;10.50;64.40;;;;;;4945423;29;20058;-65
2023/04/05 08:21:25;;;;;;;8.52;3.25;;;10.60;65.20;;;;;;4949495;29;20054;-65
2023/04/05 08:23:51;;;;;;;7.03;3.40;;;11.00;64.70;;;;;;4946508;29;20036;-65
2023/04/05 08:26:17;;;;;;;6.47;3.30;;;11.50;60.30;;;;;;4946068;29;20050;-65
2023/04/05 08:28:43;;;;;;;6.13;3.65;;;12.10;58.40;;;;;;4946116;29;20415;-66
2023/04/05 08:31:09;;;;;;;8.40;4.78;;;12.60;55.40;;;;;;4944987;29;20047;-66
2023/04/05 08:33:35;;;;;;;6.53;4.05;;;13.20;54.20;;;;;;4946126;29;20038;-65
2023/04/05 08:36:06;;;;;;;6.75;4.43;;;13.70;51.80;;;;;;4947378;29;20447;-66
2023/04/05 08:38:32;;;;;;;7.38;4.57;;;13.90;50.70;;;;;;4948733;28;20045;-65
2023/04/05 08:41:26;;;;;;;8.77;5.60;;;13.60;49.80;;;;;;4941684;29;20125;-64
2023/04/05 08:43:58;;;;;;;6.45;4.20;;;13.50;50.00;;;;;;4943992;29;20722;-65
2023/04/05 08:46:25;;;;;;;8.10;4.10;;;13.80;48.50;;;;;;4945428;28;20174;-66
2023/04/05 08:48:52;;;;;;;8.60;4.50;;;14.20;50.50;;;;;;4940734;29;20031;-66
2023/04/05 08:51:20;;;;;;;4.90;3.05;;;14.80;48.30;;;;;;4945831;29;20023;-65
2023/04/05 08:53:46;;;;;;;5.47;2.92;;;15.30;45.50;;;;;;4944442;29;20046;-66
2023/04/05 08:56:15;;;;;;;6.95;3.30;;;15.60;44.60;;;;;;4946859;29;20039;-66
2023/04/05 08:58:51;;;;;;;4.05;2.55;;;16.20;43.60;;;;;;4947762;29;20038;-66
2023/04/05 09:01:18;;;;;;;6.35;2.75;;;16.70;42.70;;;;;;4947014;29;20430;-65
2023/04/05 09:03:45;;;;;;;4.88;2.55;;;17.20;41.00;;;;;;4945615;29;20559;-66
2023/04/05 09:06:12;;;;;;;4.60;2.00;;;17.50;40.70;;;;;;4928097;29;20035;-65
2023/04/05 09:08:38;;;;;;;4.53;2.40;;;17.60;38.20;;;;;;4945319;29;20035;-65
2023/04/05 09:11:05;;;;;;;9.98;4.32;;;17.80;38.80;;;;;;4942566;29;20031;-66
2023/04/05 09:13:30;;;;;;;6.82;3.05;;;18.00;39.50;;;;;;4944053;28;20197;-66
2023/04/05 09:15:56;;;;;;;4.75;2.55;;;18.20;39.20;;;;;;4946059;28;20486;-65
2023/04/05 09:18:22;;;;;;;8.27;4.00;;;18.20;38.50;;;;;;4944573;29;20035;-65
2023/04/05 09:20:48;;;;;;;6.80;3.50;;;18.10;38.00;;;;;;4950110;29;20035;-66
2023/04/05 09:23:14;;;;;;;4.82;2.90;;;17.90;38.70;;;;;;4944944;29;20034;-66
2023/04/05 09:25:41;;;;;;;4.80;2.80;;;17.50;38.60;;;;;;4945323;29;20042;-66
2023/04/05 09:28:11;;;;;;;8.68;5.45;;;17.10;38.70;;;;;;4946632;29;20191;-66
2023/04/05 09:30:37;;;;;;;4.53;2.80;;;16.80;39.90;;;;;;4940932;29;20043;-66
2023/04/05 09:33:06;;;;;;;13.45;5.72;;;16.50;39.70;;;;;;4943458;29;20046;-66
2023/04/05 09:35:35;;;;;;;9.18;3.58;;;16.60;40.90;;;;;;4943057;29;20039;-65
2023/04/05 09:38:02;;;;;;;17.45;7.07;;;16.70;39.30;;;;;;4947549;28;20474;-66
2023/04/05 09:40:46;;;;;;;9.30;3.75;;;16.80;39.00;;;;;;4926111;29;20062;-66
2023/04/05 09:43:40;;;;;;;11.75;5.05;;;16.50;39.10;;;;;;4926568;29;20055;-66
2023/04/05 09:46:15;;;;;;;8.73;4.18;;;15.90;41.30;;;;;;4942765;29;20036;-66
2023/04/05 09:48:50;;;;;;;8.50;4.93;;;15.70;42.30;;;;;;4946323;29;20479;-66
2023/04/05 09:51:17;;;;;;;7.20;2.97;;;15.70;42.10;;;;;;4944698;29;20142;-66
2023/04/05 09:53:57;;;;;;;4.85;2.47;;;15.70;40.60;;;;;;4943028;29;20189;-66
2023/04/05 09:56:22;;;;;;;7.10;2.42;;;15.80;40.80;;;;;;4926697;29;20038;-66
2023/04/05 09:58:50;;;;;;;4.60;2.50;;;16.30;41.00;;;;;;4941515;28;20020;-66
2023/04/05 10:01:17;;;;;;;5.15;2.40;;;16.90;41.20;;;;;;4946013;29;20109;-66
2023/04/05 10:03:47;;;;;;;6.15;2.47;;;17.60;38.80;;;;;;4942508;29;20038;-66
2023/04/05 10:06:14;;;;;;;3.70;1.88;;;18.10;38.00;;;;;;4945011;29;20043;-66
2023/04/05 10:08:40;;;;;;;4.03;2.47;;;18.10;38.10;;;;;;4945821;29;20035;-66
2023/04/05 10:11:06;;;;;;;6.43;3.30;;;17.80;38.50;;;;;;4940472;29;20036;-66
2023/04/05 10:13:32;;;;;;;6.28;2.58;;;17.40;40.80;;;;;;4945789;29;20496;-66
2023/04/05 10:16:00;;;;;;;6.07;3.00;;;17.40;39.50;;;;;;4941080;29;20746;-66
2023/04/05 10:18:38;;;;;;;7.63;2.78;;;17.60;39.80;;;;;;4943462;29;20562;-66
2023/04/05 10:21:05;;;;;;;4.07;2.33;;;18.10;39.10;;;;;;4944060;29;20768;-66
2023/04/05 10:23:33;;;;;;;4.97;1.80;;;18.30;36.20;;;;;;4945462;29;20035;-66
2023/04/05 10:26:15;;;;;;;2.92;2.28;;;18.10;38.00;;;;;;4944274;29;20045;-66
2023/04/05 10:28:46;;;;;;;2.38;1.92;;;17.90;38.70;;;;;;4945421;29;20547;-66
2023/04/05 10:31:37;;;;;;;6.53;2.47;;;17.70;37.50;;;;;;4944369;29;20082;-66
2023/04/05 10:34:05;;;;;;;4.68;2.13;;;17.50;40.10;;;;;;4943341;29;20039;-66
2023/04/05 10:36:49;;;;;;;4.00;2.50;;;17.60;39.70;;;;;;4943789;29;20031;-66
2023/04/05 10:39:26;;;;;;;4.22;2.33;;;17.70;40.00;;;;;;4946068;28;20078;-65
2023/04/05 10:41:59;;;;;;;6.40;3.50;;;18.00;39.60;;;;;;4945933;29;20102;-66
2023/04/05 10:44:25;;;;;;;5.82;3.35;;;18.10;40.40;;;;;;4926781;29;20055;-66
2023/04/05 10:46:52;;;;;;;8.18;2.67;;;17.90;39.10;;;;;;4945494;29;20805;-66
2023/04/05 10:49:35;;;;;;;4.40;2.53;;;17.70;41.20;;;;;;4943752;29;20055;-66
2023/04/05 10:52:02;;;;;;;3.95;1.67;;;17.70;40.40;;;;;;4945660;28;20718;-66
2023/04/05 10:54:31;;;;;;;7.03;2.88;;;17.10;40.00;;;;;;4943124;29;20035;-66
2023/04/05 10:56:58;;;;;;;4.60;1.88;;;16.90;40.10;;;;;;4944799;29;20031;-66
2023/04/05 10:59:26;;;;;;;3.30;2.00;;;16.50;40.00;;;;;;4943295;29;20062;-66
2023/04/05 11:01:53;;;;;;;5.35;2.70;;;15.70;41.00;;;;;;4942588;29;20046;-67
2023/04/05 11:04:20;;;;;;;5.72;2.58;;;15.00;42.70;;;;;;4944616;28;20054;-66
2023/04/05 11:06:46;;;;;;;3.55;1.98;;;14.90;44.00;;;;;;4927918;29;20075;-65
2023/04/05 11:09:20;;;;;;;3.03;1.60;;;15.30;43.20;;;;;;4945546;28;20050;-66
2023/04/05 11:11:48;;;;;;;3.80;2.10;;;15.90;42.50;;;;;;4941242;29;20106;-66
2023/04/05 11:14:24;;;;;;;2.70;1.60;;;16.00;42.00;;;;;;4947469;29;21258;-66
2023/04/05 11:16:53;;;;;;;2.58;1.60;;;15.90;41.40;;;;;;4945015;29;20035;-66
2023/04/05 11:19:19;;;;;;;3.42;1.80;;;15.70;41.30;;;;;;4948289;29;20039;-66
2023/04/05 11:21:46;;;;;;;4.60;1.70;;;15.30;41.80;;;;;;4948808;29;20062;-66
2023/04/05 11:24:14;;;;;;;2.70;1.80;;;15.20;43.30;;;;;;4941301;29;20061;-66
2023/04/05 11:26:43;;;;;;;4.53;1.92;;;15.10;42.50;;;;;;4947620;29;20063;-66
2023/04/05 11:29:10;;;;;;;2.83;1.70;;;15.10;42.60;;;;;;4947928;29;20061;-66
2023/04/05 11:31:55;;;;;;;3.05;1.40;;;15.00;43.70;;;;;;4953844;29;20141;-66
2023/04/05 11:34:23;;;;;;;3.37;1.77;;;14.80;42.00;;;;;;4949046;29;20038;-66
2023/04/05 11:36:50;;;;;;;4.72;1.83;;;14.60;42.40;;;;;;4946244;29;20035;-66
2023/04/05 11:39:18;;;;;;;4.85;1.77;;;14.60;43.20;;;;;;4945557;28;20031;-66
2023/04/05 11:41:45;;;;;;;6.13;2.08;;;14.60;39.80;;;;;;4947196;29;20832;-66
2023/04/05 11:44:15;;;;;;;4.32;1.70;;;14.50;43.60;;;;;;4944935;29;20106;-66
2023/04/05 11:46:41;;;;;;;2.70;1.80;;;14.60;43.80;;;;;;4946010;29;20050;-66
2023/04/05 11:49:07;;;;;;;3.95;1.50;;;14.50;43.60;;;;;;4949202;28;20049;-65
2023/04/05 11:51:33;;;;;;;3.72;1.88;;;14.40;43.90;;;;;;4946766;29;20050;-66
2023/04/05 11:53:59;;;;;;;3.33;2.00;;;14.20;43.90;;;;;;4940119;29;20030;-66
2023/04/05 11:56:25;;;;;;;3.75;2.25;;;14.10;45.30;;;;;;4947328;29;20559;-66
2023/04/05 11:58:50;;;;;;;3.50;1.58;;;13.90;43.90;;;;;;4945393;29;20032;-66
2023/04/05 12:01:17;;;;;;;2.95;1.70;;;13.90;42.80;;;;;;4943718;29;20027;-66
2023/04/05 12:03:42;;;;;;;4.47;1.70;;;13.80;44.00;;;;;;4945313;29;20035;-66
2023/04/05 12:06:08;;;;;;;2.33;1.63;;;13.80;42.70;;;;;;4943117;29;20086;-66
2023/04/05 12:08:52;;;;;;;1.80;1.30;;;13.70;44.10;;;;;;4946923;29;20598;-66
2023/04/05 12:11:29;;;;;;;3.25;1.52;;;13.60;45.70;;;;;;4940267;29;20042;-66
2023/04/05 12:13:59;;;;;;;4.00;1.95;;;13.50;46.30;;;;;;4943445;29;20072;-66
2023/04/05 12:16:25;;;;;;;2.50;1.73;;;13.60;44.30;;;;;;4945235;29;20036;-66
2023/04/05 12:18:55;;;;;;;2.63;1.67;;;13.50;45.70;;;;;;4946209;29;20126;-66
2023/04/05 12:21:22;;;;;;;2.20;1.50;;;13.50;46.00;;;;;;4945978;28;20031;-66
2023/04/05 12:23:49;;;;;;;3.08;1.70;;;13.50;45.70;;;;;;4940552;29;20023;-66
2023/04/05 12:26:15;;;;;;;2.00;1.38;;;13.50;45.70;;;;;;4946336;29;20035;-66
2023/04/05 12:28:55;;;;;;;3.30;2.22;;;13.40;45.30;;;;;;4940711;29;20857;-66
2023/04/05 12:31:43;;;;;;;3.67;1.75;;;13.20;44.10;;;;;;4945937;29;20071;-66
2023/04/05 12:34:10;;;;;;;5.15;2.15;;;13.10;45.00;;;;;;4942730;29;20049;-66
2023/04/05 12:36:40;;;;;;;4.65;2.03;;;13.00;45.10;;;;;;4942379;29;20062;-65
2023/04/05 12:39:07;;;;;;;3.05;1.67;;;12.90;46.70;;;;;;4948811;28;20035;-66
2023/04/05 12:41:33;;;;;;;4.47;3.63;;;12.90;45.10;;;;;;4946566;28;20480;-66
2023/04/05 12:44:04;;;;;;;4.25;2.42;;;12.80;46.10;;;;;;4928344;29;20031;-66
2023/04/05 12:46:41;;;;;;;4.15;1.80;;;12.80;47.40;;;;;;4942863;29;20382;-66
2023/04/05 12:49:11;;;;;;;3.08;1.40;;;12.60;48.10;;;;;;4945279;29;20046;-66
2023/04/05 12:51:44;;;;;;;3.47;1.90;;;12.40;47.10;;;;;;4941306;29;20031;-65
2023/04/05 12:54:19;;;;;;;2.45;1.50;;;12.40;48.40;;;;;;4941108;29;20126;-66
2023/04/05 12:56:45;;;;;;;3.05;1.45;;;12.30;49.60;;;;;;4942722;28;20717;-65
2023/04/05 12:59:11;;;;;;;2.30;1.52;;;12.20;47.60;;;;;;4947656;28;20035;-65
2023/04/05 13:01:38;;;;;;;5.00;1.88;;;12.20;47.50;;;;;;4945178;29;20042;-65
2023/04/05 13:04:04;;;;;;;2.63;1.48;;;12.20;49.40;;;;;;4946062;29;20542;-66